sensor_id;sensor_type;location;lat;lon;timestamp;pressure;altitude;pressure_sealevel;temperature;humidity
73516;BME280;61763;51.416;5.442;2022-10-31T00:01:59;101978.84;;;11.19;100.00
73516;BME280;61763;51.416;5.442;2022-10-31T00:04:24;101979.03;;;11.13;100.00
73516;BME280;61763;51.416;5.442;2022-10-31T00:06:51;101986.38;;;11.09;100.00
73516;BME280;61763;51.416;5.442;2022-10-31T00:09:17;101982.00;;;11.05;100.00
73516;BME280;61763;51.416;5.442;2022-10-31T00:11:42;101983.09;;;10.99;100.00
73516;BME280;61763;51.416;5.442;2022-10-31T00:14:08;101973.38;;;10.94;100.00
73516;BME280;61763;51.416;5.442;2022-10-31T00:16:33;101972.63;;;10.90;100.00
73516;BME280;61763;51.416;5.442;2022-10-31T00:19:02;101976.19;;;10.91;100.00
73516;BME280;61763;51.416;5.442;2022-10-31T00:21:28;101982.53;;;10.90;100.00
73516;BME280;61763;51.416;5.442;2022-10-31T00:23:54;101980.78;;;10.89;100.00
73516;BME280;61763;51.416;5.442;2022-10-31T00:26:20;101979.00;;;10.87;100.00
73516;BME280;61763;51.416;5.442;2022-10-31T00:28:45;101977.31;;;10.83;100.00
73516;BME280;61763;51.416;5.442;2022-10-31T00:31:12;101984.72;;;10.78;100.00
73516;BME280;61763;51.416;5.442;2022-10-31T00:33:38;101972.28;;;10.73;100.00
73516;BME280;61763;51.416;5.442;2022-10-31T00:36:06;101971.63;;;10.66;100.00
73516;BME280;61763;51.416;5.442;2022-10-31T00:38:32;101970.88;;;10.61;100.00
73516;BME280;61763;51.416;5.442;2022-10-31T00:40:57;101969.16;;;10.58;100.00
73516;BME280;61763;51.416;5.442;2022-10-31T00:43:23;101965.63;;;10.56;100.00
73516;BME280;61763;51.416;5.442;2022-10-31T00:45:49;101967.41;;;10.57;100.00
73516;BME280;61763;51.416;5.442;2022-10-31T00:48:14;101955.72;;;10.57;100.00
73516;BME280;61763;51.416;5.442;2022-10-31T00:50:40;101965.69;;;10.55;100.00
73516;BME280;61763;51.416;5.442;2022-10-31T00:53:06;101973.03;;;10.49;100.00
73516;BME280;61763;51.416;5.442;2022-10-31T00:55:31;101966.97;;;10.43;100.00
73516;BME280;61763;51.416;5.442;2022-10-31T00:57:57;101957.19;;;10.39;100.00
73516;BME280;61763;51.416;5.442;2022-10-31T01:00:23;101967.13;;;10.38;100.00
73516;BME280;61763;51.416;5.442;2022-10-31T01:02:48;101975.22;;;10.38;100.00
73516;BME280;61763;51.416;5.442;2022-10-31T01:05:14;101975.88;;;10.45;100.00
73516;BME280;61763;51.416;5.442;2022-10-31T01:07:40;101968.59;;;10.48;100.00
73516;BME280;61763;51.416;5.442;2022-10-31T01:10:06;101966.72;;;10.50;100.00
73516;BME280;61763;51.416;5.442;2022-10-31T01:12:43;101954.88;;;10.55;100.00
73516;BME280;61763;51.416;5.442;2022-10-31T01:15:12;101949.44;;;10.83;100.00
73516;BME280;61763;51.416;5.442;2022-10-31T01:17:38;101960.19;;;10.84;100.00
73516;BME280;61763;51.416;5.442;2022-10-31T01:20:06;101950.63;;;10.74;100.00
73516;BME280;61763;51.416;5.442;2022-10-31T01:22:31;101952.69;;;10.67;100.00
73516;BME280;61763;51.416;5.442;2022-10-31T01:24:57;101952.03;;;10.59;100.00
73516;BME280;61763;51.416;5.442;2022-10-31T01:27:22;101963.09;;;10.51;100.00
73516;BME280;61763;51.416;5.442;2022-10-31T01:29:48;101968.81;;;10.41;100.00
73516;BME280;61763;51.416;5.442;2022-10-31T01:32:13;101954.72;;;10.31;100.00
73516;BME280;61763;51.416;5.442;2022-10-31T01:34:38;101968.44;;;10.23;100.00
73516;BME280;61763;51.416;5.442;2022-10-31T01:37:05;101965.88;;;10.18;100.00
73516;BME280;61763;51.416;5.442;2022-10-31T01:39:31;101957.06;;;10.13;100.00
73516;BME280;61763;51.416;5.442;2022-10-31T01:41:56;101963.56;;;10.06;100.00
73516;BME280;61763;51.416;5.442;2022-10-31T01:47:05;101970.06;;;9.99;100.00
73516;BME280;61763;51.416;5.442;2022-10-31T01:52:31;101959.50;;;9.91;100.00
73516;BME280;61763;51.416;5.442;2022-10-31T01:54:59;101963.09;;;9.92;100.00
73516;BME280;61763;51.416;5.442;2022-10-31T01:57:26;101963.13;;;9.90;100.00
73516;BME280;61763;51.416;5.442;2022-10-31T01:59:57;101952.38;;;9.89;100.00
73516;BME280;61763;51.416;5.442;2022-10-31T02:02:25;101964.09;;;9.88;100.00
73516;BME280;61763;51.416;5.442;2022-10-31T02:04:51;101952.53;;;9.84;100.00
73516;BME280;61763;51.416;5.442;2022-10-31T02:07:25;101955.31;;;9.81;100.00
73516;BME280;61763;51.416;5.442;2022-10-31T02:09:53;101944.69;;;9.76;100.00
73516;BME280;61763;51.416;5.442;2022-10-31T02:12:18;101944.78;;;9.73;100.00
73516;BME280;61763;51.416;5.442;2022-10-31T02:14:46;101940.44;;;9.68;100.00
73516;BME280;61763;51.416;5.442;2022-10-31T02:17:11;101942.41;;;9.61;100.00
73516;BME280;61763;51.416;5.442;2022-10-31T02:22:16;101940.00;;;9.52;100.00
73516;BME280;61763;51.416;5.442;2022-10-31T02:27:48;101954.59;;;9.43;100.00
73516;BME280;61763;51.416;5.442;2022-10-31T02:30:23;101952.91;;;9.39;100.00
73516;BME280;61763;51.416;5.442;2022-10-31T02:41:22;101958.75;;;9.23;100.00
73516;BME280;61763;51.416;5.442;2022-10-31T02:46:28;101946.13;;;9.24;100.00
73516;BME280;61763;51.416;5.442;2022-10-31T02:49:02;101950.56;;;9.26;100.00
73516;BME280;61763;51.416;5.442;2022-10-31T02:51:29;101941.53;;;9.29;100.00
73516;BME280;61763;51.416;5.442;2022-10-31T02:53:54;101940.44;;;9.35;100.00
73516;BME280;61763;51.416;5.442;2022-10-31T02:56:20;101935.84;;;9.40;100.00
73516;BME280;61763;51.416;5.442;2022-10-31T03:01:34;101931.00;;;9.53;100.00
73516;BME280;61763;51.416;5.442;2022-10-31T03:06:54;101938.84;;;9.60;100.00
73516;BME280;61763;51.416;5.442;2022-10-31T03:12:25;101936.88;;;9.65;100.00
73516;BME280;61763;51.416;5.442;2022-10-31T03:17:47;101930.75;;;9.60;100.00
73516;BME280;61763;51.416;5.442;2022-10-31T03:20:17;101931.78;;;9.56;100.00
73516;BME280;61763;51.416;5.442;2022-10-31T03:22:45;101937.38;;;9.49;100.00
73516;BME280;61763;51.416;5.442;2022-10-31T03:25:11;101932.22;;;9.41;100.00
73516;BME280;61763;51.416;5.442;2022-10-31T03:27:39;101938.69;;;9.34;100.00
73516;BME280;61763;51.416;5.442;2022-10-31T03:30:07;101938.84;;;9.27;100.00
73516;BME280;61763;51.416;5.442;2022-10-31T03:32:59;101937.28;;;9.20;100.00
73516;BME280;61763;51.416;5.442;2022-10-31T03:35:27;101931.19;;;9.12;100.00
73516;BME280;61763;51.416;5.442;2022-10-31T03:37:54;101929.59;;;9.05;100.00
73516;BME280;61763;51.416;5.442;2022-10-31T03:40:21;101931.59;;;8.98;100.00
73516;BME280;61763;51.416;5.442;2022-10-31T03:42:58;101930.84;;;8.91;100.00
73516;BME280;61763;51.416;5.442;2022-10-31T03:45:28;101929.09;;;8.89;100.00
73516;BME280;61763;51.416;5.442;2022-10-31T03:47:56;101924.72;;;8.85;100.00
73516;BME280;61763;51.416;5.442;2022-10-31T03:50:27;101928.47;;;8.79;100.00
73516;BME280;61763;51.416;5.442;2022-10-31T03:52:58;101934.81;;;8.76;100.00
73516;BME280;61763;51.416;5.442;2022-10-31T03:58:06;101930.28;;;8.79;100.00
73516;BME280;61763;51.416;5.442;2022-10-31T04:00:33;101937.13;;;8.90;100.00
73516;BME280;61763;51.416;5.442;2022-10-31T04:03:01;101932.66;;;8.91;100.00
73516;BME280;61763;51.416;5.442;2022-10-31T04:05:30;101934.44;;;8.90;100.00
73516;BME280;61763;51.416;5.442;2022-10-31T04:07:57;101930.97;;;8.87;100.00
73516;BME280;61763;51.416;5.442;2022-10-31T04:10:24;101934.63;;;8.84;100.00
73516;BME280;61763;51.416;5.442;2022-10-31T04:12:52;101938.22;;;8.83;100.00
73516;BME280;61763;51.416;5.442;2022-10-31T04:15:22;101938.38;;;8.77;100.00
73516;BME280;61763;51.416;5.442;2022-10-31T04:17:50;101941.06;;;8.77;100.00
73516;BME280;61763;51.416;5.442;2022-10-31T04:20:16;101942.72;;;8.83;100.00
73516;BME280;61763;51.416;5.442;2022-10-31T04:22:42;101946.00;;;8.96;100.00
73516;BME280;61763;51.416;5.442;2022-10-31T04:25:08;101946.75;;;9.01;100.00
73516;BME280;61763;51.416;5.442;2022-10-31T04:27:33;101938.53;;;9.05;100.00
73516;BME280;61763;51.416;5.442;2022-10-31T04:29:59;101943.91;;;9.07;100.00
73516;BME280;61763;51.416;5.442;2022-10-31T04:32:25;101944.84;;;9.06;100.00
73516;BME280;61763;51.416;5.442;2022-10-31T04:34:50;101938.50;;;9.08;100.00
73516;BME280;61763;51.416;5.442;2022-10-31T04:37:15;101937.53;;;9.09;100.00
73516;BME280;61763;51.416;5.442;2022-10-31T04:39:41;101939.31;;;9.10;100.00
73516;BME280;61763;51.416;5.442;2022-10-31T04:42:06;101936.59;;;9.12;100.00
73516;BME280;61763;51.416;5.442;2022-10-31T04:44:31;101944.66;;;9.12;100.00
73516;BME280;61763;51.416;5.442;2022-10-31T04:46:57;101940.22;;;9.09;100.00
73516;BME280;61763;51.416;5.442;2022-10-31T04:49:22;101939.22;;;9.14;100.00
73516;BME280;61763;51.416;5.442;2022-10-31T04:51:47;101933.75;;;9.17;100.00
73516;BME280;61763;51.416;5.442;2022-10-31T04:54:13;101934.50;;;9.23;100.00
73516;BME280;61763;51.416;5.442;2022-10-31T04:56:38;101934.28;;;9.31;100.00
73516;BME280;61763;51.416;5.442;2022-10-31T04:59:03;101930.50;;;9.38;100.00
73516;BME280;61763;51.416;5.442;2022-10-31T05:01:29;101926.69;;;9.45;100.00
73516;BME280;61763;51.416;5.442;2022-10-31T05:03:54;101932.00;;;9.49;100.00
73516;BME280;61763;51.416;5.442;2022-10-31T05:06:19;101924.03;;;9.44;100.00
73516;BME280;61763;51.416;5.442;2022-10-31T05:08:45;101929.56;;;9.39;100.00
73516;BME280;61763;51.416;5.442;2022-10-31T05:11:10;101921.69;;;9.32;100.00
73516;BME280;61763;51.416;5.442;2022-10-31T05:13:36;101923.72;;;9.23;100.00
73516;BME280;61763;51.416;5.442;2022-10-31T05:16:01;101931.16;;;9.14;100.00
73516;BME280;61763;51.416;5.442;2022-10-31T05:18:27;101924.16;;;9.06;100.00
73516;BME280;61763;51.416;5.442;2022-10-31T05:20:53;101927.94;;;8.99;100.00
73516;BME280;61763;51.416;5.442;2022-10-31T05:23:18;101931.75;;;8.90;100.00
73516;BME280;61763;51.416;5.442;2022-10-31T05:25:44;101924.72;;;8.85;100.00
73516;BME280;61763;51.416;5.442;2022-10-31T05:28:09;101925.81;;;8.77;100.00
73516;BME280;61763;51.416;5.442;2022-10-31T05:30:34;101918.78;;;8.72;100.00
73516;BME280;61763;51.416;5.442;2022-10-31T05:33:00;101908.19;;;8.66;100.00
73516;BME280;61763;51.416;5.442;2022-10-31T05:35:30;101911.88;;;8.62;100.00
73516;BME280;61763;51.416;5.442;2022-10-31T05:37:57;101907.53;;;8.56;100.00
73516;BME280;61763;51.416;5.442;2022-10-31T05:40:23;101905.91;;;8.49;100.00
73516;BME280;61763;51.416;5.442;2022-10-31T05:42:51;101913.13;;;8.47;100.00
73516;BME280;61763;51.416;5.442;2022-10-31T05:45:18;101918.56;;;8.45;100.00
73516;BME280;61763;51.416;5.442;2022-10-31T05:50:16;101915.09;;;8.38;100.00
73516;BME280;61763;51.416;5.442;2022-10-31T05:52:41;101912.47;;;8.35;100.00
73516;BME280;61763;51.416;5.442;2022-10-31T05:55:07;101907.22;;;8.31;100.00
73516;BME280;61763;51.416;5.442;2022-10-31T05:57:33;101909.84;;;8.32;100.00
73516;BME280;61763;51.416;5.442;2022-10-31T05:59:59;101898.22;;;8.30;100.00
73516;BME280;61763;51.416;5.442;2022-10-31T06:02:24;101906.38;;;8.27;100.00
73516;BME280;61763;51.416;5.442;2022-10-31T06:04:50;101903.75;;;8.24;100.00
73516;BME280;61763;51.416;5.442;2022-10-31T06:07:15;101908.22;;;8.25;100.00
73516;BME280;61763;51.416;5.442;2022-10-31T06:09:41;101902.94;;;8.22;100.00
73516;BME280;61763;51.416;5.442;2022-10-31T06:12:06;101898.50;;;8.19;100.00
73516;BME280;61763;51.416;5.442;2022-10-31T06:14:31;101895.84;;;8.18;100.00
73516;BME280;61763;51.416;5.442;2022-10-31T06:16:57;101892.31;;;8.16;100.00
73516;BME280;61763;51.416;5.442;2022-10-31T06:19:22;101898.63;;;8.15;100.00
73516;BME280;61763;51.416;5.442;2022-10-31T06:21:47;101896.91;;;8.11;100.00
73516;BME280;61763;51.416;5.442;2022-10-31T06:24:13;101894.28;;;8.07;100.00
73516;BME280;61763;51.416;5.442;2022-10-31T06:26:40;101897.91;;;8.06;100.00
73516;BME280;61763;51.416;5.442;2022-10-31T06:29:05;101897.81;;;8.10;100.00
73516;BME280;61763;51.416;5.442;2022-10-31T06:31:30;101897.75;;;8.14;100.00
73516;BME280;61763;51.416;5.442;2022-10-31T06:33:56;101903.84;;;8.21;100.00
73516;BME280;61763;51.416;5.442;2022-10-31T06:36:22;101909.94;;;8.29;100.00
73516;BME280;61763;51.416;5.442;2022-10-31T06:38:47;101901.63;;;8.38;100.00
73516;BME280;61763;51.416;5.442;2022-10-31T06:41:12;101897.88;;;8.47;100.00
73516;BME280;61763;51.416;5.442;2022-10-31T06:43:38;101897.72;;;8.53;100.00
73516;BME280;61763;51.416;5.442;2022-10-31T06:46:04;101897.63;;;8.56;100.00
73516;BME280;61763;51.416;5.442;2022-10-31T06:48:30;101895.88;;;8.55;100.00
73516;BME280;61763;51.416;5.442;2022-10-31T06:50:59;101898.63;;;8.54;100.00
73516;BME280;61763;51.416;5.442;2022-10-31T06:53:26;101901.22;;;8.57;100.00
73516;BME280;61763;51.416;5.442;2022-10-31T06:55:52;101896.63;;;8.61;100.00
73516;BME280;61763;51.416;5.442;2022-10-31T06:58:17;101895.59;;;8.66;100.00
73516;BME280;61763;51.416;5.442;2022-10-31T07:00:42;101896.25;;;8.76;100.00
73516;BME280;61763;51.416;5.442;2022-10-31T07:03:15;101892.41;;;8.86;100.00
73516;BME280;61763;51.416;5.442;2022-10-31T07:05:46;101891.25;;;8.97;100.00
73516;BME280;61763;51.416;5.442;2022-10-31T07:08:13;101893.63;;;9.07;100.00
73516;BME280;61763;51.416;5.442;2022-10-31T07:10:40;101886.66;;;9.32;100.00
73516;BME280;61763;51.416;5.442;2022-10-31T07:13:11;101898.75;;;9.50;100.00
73516;BME280;61763;51.416;5.442;2022-10-31T07:15:39;101895.78;;;9.59;100.00
73516;BME280;61763;51.416;5.442;2022-10-31T07:18:06;101887.34;;;9.70;100.00
73516;BME280;61763;51.416;5.442;2022-10-31T07:20:33;101885.47;;;9.73;100.00
73516;BME280;61763;51.416;5.442;2022-10-31T07:22:58;101887.16;;;9.76;100.00
73516;BME280;61763;51.416;5.442;2022-10-31T07:25:25;101888.06;;;9.76;100.00
73516;BME280;61763;51.416;5.442;2022-10-31T07:27:51;101894.28;;;9.78;100.00
73516;BME280;61763;51.416;5.442;2022-10-31T07:30:17;101895.03;;;9.84;100.00
73516;BME280;61763;51.416;5.442;2022-10-31T07:32:44;101897.59;;;9.88;100.00
73516;BME280;61763;51.416;5.442;2022-10-31T07:35:11;101898.06;;;10.03;100.00
73516;BME280;61763;51.416;5.442;2022-10-31T07:37:37;101905.75;;;10.15;100.00
73516;BME280;61763;51.416;5.442;2022-10-31T07:40:04;101902.41;;;10.37;100.00
73516;BME280;61763;51.416;5.442;2022-10-31T07:42:44;101900.69;;;10.32;100.00
73516;BME280;61763;51.416;5.442;2022-10-31T07:45:12;101903.41;;;10.32;100.00
73516;BME280;61763;51.416;5.442;2022-10-31T07:47:45;101905.19;;;10.32;100.00
73516;BME280;61763;51.416;5.442;2022-10-31T07:50:13;101904.25;;;10.34;100.00
73516;BME280;61763;51.416;5.442;2022-10-31T07:52:39;101899.72;;;10.37;100.00
73516;BME280;61763;51.416;5.442;2022-10-31T07:55:05;101909.59;;;10.36;100.00
73516;BME280;61763;51.416;5.442;2022-10-31T07:57:31;101910.50;;;10.37;100.00
73516;BME280;61763;51.416;5.442;2022-10-31T07:59:57;101910.41;;;10.40;100.00
73516;BME280;61763;51.416;5.442;2022-10-31T08:02:22;101912.78;;;10.49;100.00
73516;BME280;61763;51.416;5.442;2022-10-31T08:04:49;101925.88;;;10.61;100.00
73516;BME280;61763;51.416;5.442;2022-10-31T08:07:15;101917.41;;;10.72;100.00
73516;BME280;61763;51.416;5.442;2022-10-31T08:09:40;101921.09;;;10.96;100.00
73516;BME280;61763;51.416;5.442;2022-10-31T08:12:06;101912.50;;;11.10;100.00
73516;BME280;61763;51.416;5.442;2022-10-31T08:14:31;101911.34;;;11.17;100.00
73516;BME280;61763;51.416;5.442;2022-10-31T08:16:57;101898.31;;;11.29;100.00
73516;BME280;61763;51.416;5.442;2022-10-31T08:19:22;101890.91;;;11.59;100.00
73516;BME280;61763;51.416;5.442;2022-10-31T08:21:50;101897.19;;;11.83;100.00
73516;BME280;61763;51.416;5.442;2022-10-31T08:24:16;101902.25;;;12.16;100.00
73516;BME280;61763;51.416;5.442;2022-10-31T08:26:42;101898.91;;;12.32;100.00
73516;BME280;61763;51.416;5.442;2022-10-31T08:29:07;101897.84;;;12.58;100.00
73516;BME280;61763;51.416;5.442;2022-10-31T08:31:32;101888.03;;;12.76;100.00
73516;BME280;61763;51.416;5.442;2022-10-31T08:33:58;101888.97;;;12.75;100.00
73516;BME280;61763;51.416;5.442;2022-10-31T08:36:23;101879.72;;;12.80;100.00
73516;BME280;61763;51.416;5.442;2022-10-31T08:38:48;101860.34;;;12.69;100.00
73516;BME280;61763;51.416;5.442;2022-10-31T08:41:14;101847.69;;;12.70;100.00
73516;BME280;61763;51.416;5.442;2022-10-31T08:43:39;101843.97;;;12.72;100.00
73516;BME280;61763;51.416;5.442;2022-10-31T08:46:05;101838.13;;;12.82;100.00
73516;BME280;61763;51.416;5.442;2022-10-31T08:48:31;101847.53;;;12.73;100.00
73516;BME280;61763;51.416;5.442;2022-10-31T08:50:58;101857.31;;;12.77;100.00
73516;BME280;61763;51.416;5.442;2022-10-31T08:53:24;101863.06;;;12.69;100.00
73516;BME280;61763;51.416;5.442;2022-10-31T08:55:49;101864.72;;;12.72;100.00
73516;BME280;61763;51.416;5.442;2022-10-31T08:58:17;101853.91;;;12.72;100.00
73516;BME280;61763;51.416;5.442;2022-10-31T09:00:44;101843.06;;;12.72;100.00
73516;BME280;61763;51.416;5.442;2022-10-31T09:03:23;101837.34;;;12.79;100.00
73516;BME280;61763;51.416;5.442;2022-10-31T09:05:49;101861.03;;;12.95;100.00
73516;BME280;61763;51.416;5.442;2022-10-31T09:08:15;101862.56;;;13.21;100.00
73516;BME280;61763;51.416;5.442;2022-10-31T09:10:42;101876.31;;;13.58;100.00
73516;BME280;61763;51.416;5.442;2022-10-31T09:13:13;101862.84;;;13.75;100.00
73516;BME280;61763;51.416;5.442;2022-10-31T09:15:41;101848.53;;;13.91;100.00
73516;BME280;61763;51.416;5.442;2022-10-31T09:18:07;101831.84;;;14.17;100.00
73516;BME280;61763;51.416;5.442;2022-10-31T09:20:34;101819.03;;;14.02;100.00
73516;BME280;61763;51.416;5.442;2022-10-31T09:23:09;101836.78;;;14.09;100.00
73516;BME280;61763;51.416;5.442;2022-10-31T09:25:35;101826.25;;;14.20;100.00
73516;BME280;61763;51.416;5.442;2022-10-31T09:28:03;101818.09;;;14.20;100.00
73516;BME280;61763;51.416;5.442;2022-10-31T09:30:29;101806.22;;;14.23;100.00
73516;BME280;61763;51.416;5.442;2022-10-31T09:32:59;101795.34;;;14.23;100.00
73516;BME280;61763;51.416;5.442;2022-10-31T09:35:26;101780.25;;;14.17;100.00
73516;BME280;61763;51.416;5.442;2022-10-31T09:37:56;101776.09;;;14.10;100.00
73516;BME280;61763;51.416;5.442;2022-10-31T09:40:24;101791.00;;;14.01;100.00
73516;BME280;61763;51.416;5.442;2022-10-31T09:46:00;101802.16;;;13.95;100.00
73516;BME280;61763;51.416;5.442;2022-10-31T09:53:51;101803.03;;;14.15;100.00
73516;BME280;61763;51.416;5.442;2022-10-31T09:56:20;101792.28;;;14.12;100.00
73516;BME280;61763;51.416;5.442;2022-10-31T09:58:50;101779.00;;;14.25;100.00
73516;BME280;61763;51.416;5.442;2022-10-31T10:03:58;101780.31;;;14.70;100.00
73516;BME280;61763;51.416;5.442;2022-10-31T10:06:28;101771.03;;;14.92;100.00
73516;BME280;61763;51.416;5.442;2022-10-31T10:08:54;101769.88;;;15.29;100.00
73516;BME280;61763;51.416;5.442;2022-10-31T10:14:14;101763.59;;;15.61;100.00
73516;BME280;61763;51.416;5.442;2022-10-31T10:25:00;101741.34;;;16.16;100.00
73516;BME280;61763;51.416;5.442;2022-10-31T10:27:53;101736.97;;;16.14;100.00
73516;BME280;61763;51.416;5.442;2022-10-31T10:30:34;101734.59;;;16.07;100.00
73516;BME280;61763;51.416;5.442;2022-10-31T10:33:08;101735.25;;;15.97;100.00
73516;BME280;61763;51.416;5.442;2022-10-31T10:38:56;101739.50;;;16.17;100.00
73516;BME280;61763;51.416;5.442;2022-10-31T10:41:17;101730.97;;;16.23;100.00
73516;BME280;61763;51.416;5.442;2022-10-31T10:43:42;101729.06;;;16.39;100.00
73516;BME280;61763;51.416;5.442;2022-10-31T10:49:16;101722.56;;;16.42;100.00
73516;BME280;61763;51.416;5.442;2022-10-31T10:52:13;101724.72;;;16.51;100.00
73516;BME280;61763;51.416;5.442;2022-10-31T10:59:47;101721.53;;;16.73;99.38
73516;BME280;61763;51.416;5.442;2022-10-31T11:02:24;101713.09;;;16.92;98.73
73516;BME280;61763;51.416;5.442;2022-10-31T11:04:55;101711.34;;;16.91;97.34
73516;BME280;61763;51.416;5.442;2022-10-31T11:07:21;101706.16;;;16.87;96.96
73516;BME280;61763;51.416;5.442;2022-10-31T11:09:47;101717.88;;;16.89;97.03
73516;BME280;61763;51.416;5.442;2022-10-31T11:12:26;101719.63;;;16.90;97.25
73516;BME280;61763;51.416;5.442;2022-10-31T11:14:56;101710.06;;;16.97;96.76
73516;BME280;61763;51.416;5.442;2022-10-31T11:17:32;101692.66;;;16.99;96.61
73516;BME280;61763;51.416;5.442;2022-10-31T11:22:31;101667.34;;;16.97;97.03
73516;BME280;61763;51.416;5.442;2022-10-31T11:24:57;101668.41;;;16.95;96.22
73516;BME280;61763;51.416;5.442;2022-10-31T11:27:24;101659.06;;;16.99;95.41
73516;BME280;61763;51.416;5.442;2022-10-31T11:29:51;101661.00;;;17.11;95.15
73516;BME280;61763;51.416;5.442;2022-10-31T11:32:22;101659.81;;;17.30;94.49
73516;BME280;61763;51.416;5.442;2022-10-31T11:34:54;101650.81;;;17.28;94.48
73516;BME280;61763;51.416;5.442;2022-10-31T11:37:32;101639.34;;;17.23;95.50
73516;BME280;61763;51.416;5.442;2022-10-31T11:40:03;101629.72;;;17.44;92.93
73516;BME280;61763;51.416;5.442;2022-10-31T11:42:35;101628.09;;;17.42;92.09
73516;BME280;61763;51.416;5.442;2022-10-31T11:45:06;101623.94;;;17.49;92.03
73516;BME280;61763;51.416;5.442;2022-10-31T11:47:47;101618.84;;;17.57;91.45
73516;BME280;61763;51.416;5.442;2022-10-31T11:50:33;101606.66;;;17.63;90.94
73516;BME280;61763;51.416;5.442;2022-10-31T11:53:00;101608.47;;;17.49;91.79
73516;BME280;61763;51.416;5.442;2022-10-31T11:55:36;101602.38;;;17.59;91.66
73516;BME280;61763;51.416;5.442;2022-10-31T11:58:03;101593.22;;;17.60;89.89
73516;BME280;61763;51.416;5.442;2022-10-31T12:00:35;101593.09;;;17.21;91.98
73516;BME280;61763;51.416;5.442;2022-10-31T12:05:30;101591.06;;;16.96;94.40
73516;BME280;61763;51.416;5.442;2022-10-31T12:07:58;101573.53;;;16.86;95.42
73516;BME280;61763;51.416;5.442;2022-10-31T12:10:30;101576.88;;;16.76;95.61
73516;BME280;61763;51.416;5.442;2022-10-31T12:13:30;101558.78;;;16.90;94.78
73516;BME280;61763;51.416;5.442;2022-10-31T12:16:16;101546.28;;;16.86;95.88
73516;BME280;61763;51.416;5.442;2022-10-31T12:18:49;101545.16;;;17.17;94.64
73516;BME280;61763;51.416;5.442;2022-10-31T12:39:58;101491.81;;;17.79;87.45
73516;BME280;61763;51.416;5.442;2022-10-31T12:42:50;101483.56;;;17.93;87.63
73516;BME280;61763;51.416;5.442;2022-10-31T12:45:29;101473.78;;;17.50;88.86
73516;BME280;61763;51.416;5.442;2022-10-31T12:50:47;101465.16;;;17.82;87.93
73516;BME280;61763;51.416;5.442;2022-10-31T12:56:30;101456.28;;;17.27;88.83
73516;BME280;61763;51.416;5.442;2022-10-31T12:59:07;101447.53;;;17.22;87.88
73516;BME280;61763;51.416;5.442;2022-10-31T13:01:40;101438.19;;;17.39;87.54
73516;BME280;61763;51.416;5.442;2022-10-31T13:06:57;101430.00;;;17.39;86.95
73516;BME280;61763;51.416;5.442;2022-10-31T13:09:53;101420.72;;;17.55;86.06
73516;BME280;61763;51.416;5.442;2022-10-31T13:12:22;101417.59;;;17.61;86.12
73516;BME280;61763;51.416;5.442;2022-10-31T13:14:52;101410.16;;;17.76;85.00
73516;BME280;61763;51.416;5.442;2022-10-31T13:17:31;101402.03;;;17.87;85.37
73516;BME280;61763;51.416;5.442;2022-10-31T13:20:12;101399.00;;;17.92;84.02
73516;BME280;61763;51.416;5.442;2022-10-31T13:22:38;101398.38;;;17.62;84.85
73516;BME280;61763;51.416;5.442;2022-10-31T13:27:48;101379.34;;;17.86;83.71
73516;BME280;61763;51.416;5.442;2022-10-31T13:30:21;101362.00;;;17.75;83.06
73516;BME280;61763;51.416;5.442;2022-10-31T13:33:06;101362.94;;;17.86;83.45
73516;BME280;61763;51.416;5.442;2022-10-31T13:38:12;101351.06;;;17.75;83.50
73516;BME280;61763;51.416;5.442;2022-10-31T13:40:54;101343.00;;;17.60;83.23
73516;BME280;61763;51.416;5.442;2022-10-31T13:44:12;101340.16;;;17.75;83.66
73516;BME280;61763;51.416;5.442;2022-10-31T13:46:39;101333.09;;;17.46;84.01
73516;BME280;61763;51.416;5.442;2022-10-31T13:51:50;101340.06;;;17.25;85.40
73516;BME280;61763;51.416;5.442;2022-10-31T13:57:13;101329.19;;;16.85;87.31
73516;BME280;61763;51.416;5.442;2022-10-31T13:59:47;101330.81;;;16.74;88.73
73516;BME280;61763;51.416;5.442;2022-10-31T14:02:16;101325.78;;;16.68;88.14
73516;BME280;61763;51.416;5.442;2022-10-31T14:04:48;101327.78;;;16.79;87.57
73516;BME280;61763;51.416;5.442;2022-10-31T14:07:17;101318.16;;;16.73;87.80
73516;BME280;61763;51.416;5.442;2022-10-31T14:10:04;101317.50;;;16.82;87.46
73516;BME280;61763;51.416;5.442;2022-10-31T14:15:21;101318.38;;;16.97;86.78
73516;BME280;61763;51.416;5.442;2022-10-31T14:17:56;101302.53;;;17.03;86.26
73516;BME280;61763;51.416;5.442;2022-10-31T14:22:48;101305.59;;;16.98;86.17
73516;BME280;61763;51.416;5.442;2022-10-31T14:25:43;101292.28;;;16.93;87.26
73516;BME280;61763;51.416;5.442;2022-10-31T14:30:52;101302.19;;;16.94;87.78
73516;BME280;61763;51.416;5.442;2022-10-31T14:33:19;101287.31;;;16.73;88.30
73516;BME280;61763;51.416;5.442;2022-10-31T14:35:53;101284.69;;;16.71;89.29
73516;BME280;61763;51.416;5.442;2022-10-31T14:51:54;101249.53;;;16.94;87.71
73516;BME280;61763;51.416;5.442;2022-10-31T14:54:29;101252.00;;;16.84;88.00
73516;BME280;61763;51.416;5.442;2022-10-31T14:57:00;101233.63;;;16.88;87.77
73516;BME280;61763;51.416;5.442;2022-10-31T14:59:31;101226.06;;;16.91;88.56
73516;BME280;61763;51.416;5.442;2022-10-31T15:02:00;101204.66;;;16.72;89.09
73516;BME280;61763;51.416;5.442;2022-10-31T15:04:29;101218.41;;;16.58;89.65
73516;BME280;61763;51.416;5.442;2022-10-31T15:07:16;101207.50;;;16.58;89.81
73516;BME280;61763;51.416;5.442;2022-10-31T15:09:42;101197.66;;;16.42;90.53
73516;BME280;61763;51.416;5.442;2022-10-31T15:12:27;101190.38;;;16.43;90.54